createdAt,value
2023-07-24T00:02:38.942Z,0.0
2023-07-24T00:05:52.296Z,15.0
2023-07-24T00:09:04.605Z,15.0
2023-07-24T00:12:16.991Z,3.0
2023-07-24T00:15:30.528Z,3.0
2023-07-24T00:18:44.374Z,3.0
2023-07-24T00:21:57.042Z,13.0
2023-07-24T00:25:10.261Z,13.0
2023-07-24T00:28:22.888Z,5.0
2023-07-24T00:31:35.598Z,5.0
2023-07-24T00:34:47.757Z,5.0
2023-07-24T00:38:00.228Z,5.0
2023-07-24T00:41:12.320Z,5.0
2023-07-24T00:44:24.562Z,5.0
2023-07-24T00:50:50.797Z,5.0
2023-07-24T00:54:03.112Z,5.0
2023-07-24T00:57:15.347Z,6.0
2023-07-24T01:02:38.873Z,6.0
2023-07-24T01:05:51.610Z,6.0
2023-07-24T01:09:04.008Z,6.0
2023-07-24T01:12:16.817Z,6.0
2023-07-24T01:15:29.793Z,6.0
2023-07-24T01:18:43.800Z,6.0
2023-07-24T01:21:56.215Z,6.0
2023-07-24T01:25:08.854Z,6.0
2023-07-24T01:28:21.688Z,6.0
2023-07-24T01:31:34.419Z,6.0
2023-07-24T01:34:47.454Z,6.0
2023-07-24T01:37:59.939Z,7.0
2023-07-24T01:41:12.255Z,7.0
2023-07-24T01:44:24.606Z,7.0
2023-07-24T01:47:39.150Z,7.0
2023-07-24T01:50:51.636Z,7.0
2023-07-24T01:54:03.956Z,7.0
2023-07-24T01:57:16.914Z,7.0
2023-07-24T02:02:39.126Z,7.0
2023-07-24T02:05:52.378Z,7.0
2023-07-24T02:09:05.404Z,7.0
2023-07-24T02:12:18.473Z,1.0
2023-07-24T02:15:31.149Z,1.0
2023-07-24T02:18:44.974Z,1.0
2023-07-24T02:21:57.492Z,1.0
2023-07-24T02:25:09.728Z,1.0
2023-07-24T02:28:22.220Z,1.0
2023-07-24T02:31:34.987Z,1.0
2023-07-24T02:34:47.810Z,1.0
2023-07-24T02:38:00.448Z,1.0
2023-07-24T02:41:13.460Z,1.0
2023-07-24T02:44:26.088Z,1.0
2023-07-24T02:47:40.128Z,1.0
2023-07-24T02:50:52.663Z,1.0
2023-07-24T02:54:04.944Z,1.0
2023-07-24T02:57:17.265Z,1.0
2023-07-24T03:02:40.031Z,1.0
2023-07-24T03:05:53.373Z,1.0
2023-07-24T03:09:06.147Z,1.0
2023-07-24T03:12:19.253Z,1.0
2023-07-24T03:15:32.178Z,1.0
2023-07-24T03:18:45.948Z,1.0
2023-07-24T03:21:58.695Z,1.0
2023-07-24T03:25:11.808Z,1.0
2023-07-24T03:28:24.608Z,1.0
2023-07-24T03:31:37.890Z,1.0
2023-07-24T03:34:51.285Z,1.0
2023-07-24T03:38:03.693Z,1.0
2023-07-24T03:41:16.401Z,1.0
2023-07-24T03:44:29.331Z,1.0
2023-07-24T03:47:45.838Z,1.0
2023-07-24T03:50:58.517Z,1.0
2023-07-24T03:54:12.419Z,1.0
2023-07-24T03:57:27.240Z,1.0
2023-07-24T04:02:39.228Z,1.0
2023-07-24T04:08:07.292Z,1.0
2023-07-24T04:11:18.817Z,1.0
2023-07-24T04:14:30.212Z,1.0
2023-07-24T04:17:46.229Z,1.0
2023-07-24T04:20:57.728Z,1.0
2023-07-24T04:24:09.708Z,1.0
2023-07-24T04:27:21.828Z,1.0
2023-07-24T04:30:32.896Z,1.0
2023-07-24T04:33:44.833Z,1.0
2023-07-24T04:36:55.807Z,1.0
2023-07-24T04:40:07.006Z,1.0
2023-07-24T04:43:18.144Z,1.0
2023-07-24T04:46:32.422Z,1.0
2023-07-24T04:49:44.410Z,1.0
2023-07-24T04:52:58.411Z,1.0
2023-07-24T04:56:09.638Z,1.0
2023-07-24T04:59:20.824Z,1.0
2023-07-24T05:02:37.551Z,1.0
2023-07-24T05:05:53.767Z,1.0
2023-07-24T05:09:04.618Z,1.0
2023-07-24T05:12:16.333Z,1.0
2023-07-24T05:15:27.402Z,1.0
2023-07-24T05:18:40.891Z,1.0
2023-07-24T05:21:52.022Z,1.0
2023-07-24T05:25:02.610Z,1.0
2023-07-24T05:28:13.519Z,1.0
2023-07-24T05:31:24.786Z,1.0
2023-07-24T05:34:36.448Z,1.0
2023-07-24T05:37:51.275Z,1.0
2023-07-24T05:41:01.779Z,1.0
2023-07-24T05:44:12.875Z,1.0
2023-07-24T05:47:25.152Z,1.0
2023-07-24T05:50:37.636Z,1.0
2023-07-24T05:53:48.746Z,1.0
2023-07-24T05:56:59.624Z,1.0
2023-07-24T06:02:37.950Z,1.0
2023-07-24T06:05:50.374Z,1.0
2023-07-24T06:09:01.184Z,1.0
2023-07-24T06:12:12.046Z,1.0
2023-07-24T06:15:23.133Z,1.0
2023-07-24T06:18:35.206Z,1.0
2023-07-24T06:21:45.997Z,1.0
2023-07-24T06:24:56.734Z,1.0
2023-07-24T06:28:08.028Z,1.0
2023-07-24T06:31:36.676Z,1.0
2023-07-24T06:34:47.582Z,1.0
2023-07-24T06:38:22.151Z,1.0
2023-07-24T06:41:32.765Z,1.0
2023-07-24T06:44:43.289Z,1.0
2023-07-24T06:47:54.643Z,1.0
2023-07-24T06:51:05.714Z,1.0
2023-07-24T06:54:17.168Z,1.0
2023-07-24T06:57:29.500Z,1.0
2023-07-24T07:02:37.376Z,1.0
2023-07-24T07:05:48.719Z,1.0
2023-07-24T07:09:03.515Z,1.0
2023-07-24T07:12:13.849Z,1.0
2023-07-24T07:15:27.576Z,1.0
2023-07-24T07:18:39.160Z,1.0
2023-07-24T07:21:49.782Z,1.0
2023-07-24T07:25:03.845Z,1.0
2023-07-24T07:28:14.558Z,1.0
2023-07-24T07:31:26.525Z,1.0
2023-07-24T07:34:37.731Z,1.0
2023-07-24T07:37:48.916Z,1.0
2023-07-24T07:40:59.697Z,1.0
2023-07-24T07:44:34.113Z,1.0
2023-07-24T07:47:45.880Z,1.0
2023-07-24T07:50:59.345Z,1.0
2023-07-24T07:54:10.719Z,1.0
2023-07-24T07:57:24.551Z,1.0
2023-07-24T08:02:38.793Z,0.0
2023-07-24T08:05:52.192Z,0.0
2023-07-24T08:09:03.428Z,0.0
2023-07-24T08:12:14.766Z,15.0
2023-07-24T08:15:26.050Z,15.0
2023-07-24T08:18:39.982Z,15.0
2023-07-24T08:21:51.840Z,15.0
2023-07-24T08:25:04.875Z,15.0
2023-07-24T08:28:23.273Z,15.0
2023-07-24T08:31:35.443Z,15.0
2023-07-24T08:34:47.069Z,15.0
2023-07-24T08:37:57.625Z,15.0
2023-07-24T08:41:08.994Z,15.0
2023-07-24T08:44:23.074Z,15.0
2023-07-24T08:47:35.142Z,0.0
2023-07-24T08:50:46.298Z,0.0
2023-07-24T08:53:58.741Z,3.0
2023-07-24T08:57:10.527Z,3.0
2023-07-24T09:02:37.519Z,15.0
2023-07-24T09:05:49.785Z,15.0
2023-07-24T09:09:00.376Z,15.0
2023-07-24T09:12:14.509Z,15.0
2023-07-24T09:15:43.196Z,3.0
2023-07-24T09:23:27.730Z,1.0
2023-07-24T09:26:44.940Z,1.0
2023-07-24T09:33:11.124Z,15.0
2023-07-24T09:36:24.667Z,3.0
2023-07-24T09:39:36.764Z,3.0
2023-07-24T09:43:45.213Z,3.0
2023-07-24T09:48:07.836Z,3.0
2023-07-24T09:52:08.808Z,3.0
2023-07-24T09:55:22.027Z,0.0
2023-07-24T09:59:18.458Z,0.0
2023-07-24T10:05:51.844Z,0.0
2023-07-24T10:09:02.856Z,0.0
2023-07-24T10:12:14.361Z,0.0
2023-07-24T10:15:26.508Z,0.0
2023-07-24T10:18:43.231Z,0.0
2023-07-24T10:21:55.095Z,0.0
2023-07-24T10:25:06.604Z,15.0
2023-07-24T10:28:18.677Z,15.0
2023-07-24T10:31:54.104Z,1.0
2023-07-24T10:35:11.294Z,1.0
2023-07-24T10:38:22.471Z,0.0
2023-07-24T10:41:35.103Z,0.0
2023-07-24T10:44:48.150Z,2.0
2023-07-24T10:47:59.563Z,2.0
2023-07-24T10:51:12.602Z,2.0
2023-07-24T10:54:23.523Z,2.0
2023-07-24T10:57:34.847Z,2.0
2023-07-24T11:05:50.926Z,2.0
2023-07-24T11:09:02.234Z,2.0
2023-07-24T11:12:17.662Z,2.0
2023-07-24T11:15:28.783Z,0.0
2023-07-24T11:19:04.673Z,0.0
2023-07-24T11:22:16.133Z,0.0
2023-07-24T11:25:27.717Z,0.0
2023-07-24T11:28:39.794Z,0.0
2023-07-24T11:31:51.996Z,0.0
2023-07-24T11:35:03.419Z,0.0
2023-07-24T11:38:14.276Z,0.0
2023-07-24T11:41:28.986Z,13.0
2023-07-24T11:44:40.260Z,13.0
2023-07-24T11:47:53.056Z,2.0
2023-07-24T11:51:04.242Z,2.0
2023-07-24T11:54:15.845Z,2.0
2023-07-24T11:57:26.679Z,5.0
2023-07-24T12:02:41.635Z,5.0
2023-07-24T12:05:56.843Z,5.0
2023-07-24T12:12:22.376Z,5.0
2023-07-24T12:15:36.897Z,5.0
2023-07-24T12:18:48.658Z,15.0
2023-07-24T12:22:00.362Z,15.0
2023-07-24T12:25:11.644Z,15.0
2023-07-24T12:28:22.592Z,15.0
2023-07-24T12:31:35.183Z,2.0
2023-07-24T12:34:47.508Z,2.0
2023-07-24T12:37:58.971Z,2.0
2023-07-24T12:41:10.361Z,2.0
2023-07-24T12:44:21.397Z,2.0
2023-07-24T12:47:33.245Z,2.0
2023-07-24T12:50:45.057Z,2.0
2023-07-24T12:55:06.402Z,4.0
2023-07-24T12:58:18.043Z,4.0
2023-07-24T13:02:38.641Z,4.0
2023-07-24T13:05:50.990Z,4.0
2023-07-24T13:09:02.808Z,4.0
2023-07-24T13:12:15.458Z,3.0
2023-07-24T13:15:26.359Z,3.0
2023-07-24T13:18:51.644Z,3.0
2023-07-24T13:22:03.397Z,3.0
2023-07-24T13:25:16.505Z,3.0
2023-07-24T13:28:29.852Z,13.0
2023-07-24T13:31:45.676Z,13.0
2023-07-24T13:34:57.776Z,0.0
2023-07-24T13:38:09.763Z,0.0
2023-07-24T13:41:23.012Z,0.0
2023-07-24T13:44:35.442Z,0.0
2023-07-24T13:47:50.992Z,0.0
2023-07-24T13:51:03.117Z,0.0
2023-07-24T13:54:15.452Z,0.0
2023-07-24T13:57:26.584Z,6.0
2023-07-24T14:05:56.874Z,0.0
2023-07-24T14:09:08.168Z,14.0
2023-07-24T14:12:19.653Z,14.0
2023-07-24T14:15:31.861Z,14.0
2023-07-24T14:18:46.255Z,14.0
2023-07-24T14:21:58.178Z,14.0
2023-07-24T14:25:09.113Z,14.0
2023-07-24T14:28:20.698Z,14.0
2023-07-24T14:31:34.124Z,14.0
2023-07-24T14:34:49.765Z,14.0
2023-07-24T14:38:01.665Z,14.0
2023-07-24T14:41:13.724Z,14.0
2023-07-24T14:44:30.103Z,14.0
2023-07-24T14:47:42.061Z,14.0
2023-07-24T14:50:54.474Z,14.0
2023-07-24T14:54:06.275Z,14.0
2023-07-24T14:57:37.959Z,14.0
2023-07-24T15:02:38.796Z,14.0
2023-07-24T15:05:50.604Z,14.0
2023-07-24T15:09:02.386Z,14.0
2023-07-24T15:12:13.695Z,14.0
2023-07-24T15:15:25.151Z,14.0
2023-07-24T15:18:39.313Z,14.0
2023-07-24T15:21:50.947Z,14.0
2023-07-24T15:25:05.356Z,14.0
2023-07-24T15:28:16.534Z,14.0
2023-07-24T15:31:30.061Z,14.0
2023-07-24T15:34:45.451Z,13.0
2023-07-24T15:37:56.865Z,13.0
2023-07-24T15:41:10.123Z,13.0
2023-07-24T15:44:20.903Z,13.0
2023-07-24T15:50:52.304Z,13.0
2023-07-24T15:54:06.064Z,15.0
2023-07-24T15:57:17.363Z,15.0
2023-07-24T16:08:07.858Z,14.0
2023-07-24T16:11:21.722Z,14.0
2023-07-24T16:14:34.885Z,14.0
2023-07-24T16:18:18.208Z,14.0
2023-07-24T16:21:31.980Z,13.0
2023-07-24T16:24:45.033Z,13.0
2023-07-24T16:27:57.137Z,13.0
2023-07-24T16:31:10.840Z,13.0
2023-07-24T16:34:46.280Z,13.0
2023-07-24T16:37:58.712Z,15.0
2023-07-24T16:41:16.122Z,15.0
2023-07-24T16:44:45.725Z,14.0
2023-07-24T16:48:42.104Z,14.0
2023-07-24T16:51:53.810Z,12.0
2023-07-24T16:55:06.114Z,12.0
2023-07-24T16:58:17.918Z,14.0
2023-07-24T17:02:39.395Z,14.0
2023-07-24T17:05:56.028Z,14.0
2023-07-24T17:09:07.739Z,14.0
2023-07-24T17:12:22.183Z,14.0
2023-07-24T17:15:34.052Z,14.0
2023-07-24T17:18:47.086Z,13.0
2023-07-24T17:22:02.765Z,13.0
2023-07-24T17:25:15.536Z,13.0
2023-07-24T17:28:27.860Z,10.0
2023-07-24T17:31:40.585Z,10.0
2023-07-24T17:34:53.055Z,10.0
2023-07-24T17:38:15.296Z,10.0
2023-07-24T17:41:26.967Z,11.0
2023-07-24T17:44:40.168Z,11.0
2023-07-24T17:47:53.153Z,14.0
2023-07-24T17:51:27.133Z,14.0
2023-07-24T17:54:39.637Z,15.0
2023-07-24T17:57:54.516Z,15.0
2023-07-24T18:02:38.531Z,15.0
2023-07-24T18:05:51.489Z,15.0
2023-07-24T18:09:05.038Z,14.0
2023-07-24T18:12:21.390Z,14.0
2023-07-24T18:15:32.830Z,14.0
2023-07-24T18:18:45.168Z,14.0
2023-07-24T18:22:02.444Z,12.0
2023-07-24T18:25:14.456Z,12.0
2023-07-24T18:28:26.305Z,13.0
2023-07-24T18:31:38.707Z,13.0
2023-07-24T18:34:51.581Z,13.0
2023-07-24T18:38:06.087Z,13.0
2023-07-24T18:41:17.891Z,13.0
2023-07-24T18:44:31.944Z,10.0
2023-07-24T18:47:44.281Z,10.0
2023-07-24T18:51:00.002Z,14.0
2023-07-24T18:54:13.383Z,14.0
2023-07-24T18:57:26.872Z,14.0
2023-07-24T19:02:39.107Z,14.0
2023-07-24T19:05:52.017Z,13.0
2023-07-24T19:09:04.418Z,13.0
2023-07-24T19:12:16.657Z,13.0
2023-07-24T19:15:31.708Z,13.0
2023-07-24T19:18:43.850Z,13.0
2023-07-24T19:21:55.448Z,13.0
2023-07-24T19:25:07.567Z,14.0
2023-07-24T19:28:19.500Z,14.0
2023-07-24T19:31:31.830Z,14.0
2023-07-24T19:34:48.826Z,14.0
2023-07-24T19:38:00.557Z,14.0
2023-07-24T19:41:11.926Z,14.0
2023-07-24T19:44:26.067Z,14.0
2023-07-24T19:47:38.543Z,13.0
2023-07-24T19:50:51.199Z,13.0
2023-07-24T19:54:02.853Z,14.0
2023-07-24T19:57:15.316Z,14.0
2023-07-24T20:02:42.850Z,14.0
2023-07-24T20:05:55.955Z,14.0
2023-07-24T20:09:12.643Z,14.0
2023-07-24T20:12:24.745Z,14.0
2023-07-24T20:15:36.230Z,14.0
2023-07-24T20:18:48.796Z,14.0
2023-07-24T20:22:00.409Z,13.0
2023-07-24T20:25:12.602Z,13.0
2023-07-24T20:28:24.117Z,13.0
2023-07-24T20:31:39.426Z,13.0
2023-07-24T20:34:51.904Z,13.0
2023-07-24T20:38:03.144Z,13.0
2023-07-24T20:41:14.727Z,13.0
2023-07-24T20:44:26.339Z,13.0
2023-07-24T20:47:38.313Z,13.0
2023-07-24T20:50:51.681Z,13.0
2023-07-24T20:54:03.310Z,13.0
2023-07-24T20:57:15.062Z,13.0
2023-07-24T21:05:55.098Z,13.0
2023-07-24T21:09:06.552Z,13.0
2023-07-24T21:12:18.120Z,13.0
2023-07-24T21:15:29.330Z,13.0
2023-07-24T21:18:41.711Z,13.0
2023-07-24T21:21:56.054Z,13.0
2023-07-24T21:25:07.453Z,13.0
2023-07-24T21:28:18.737Z,13.0
2023-07-24T21:31:31.005Z,13.0
2023-07-24T21:34:42.811Z,13.0
2023-07-24T21:37:54.077Z,13.0
2023-07-24T21:41:05.440Z,13.0
2023-07-24T21:44:16.353Z,13.0
2023-07-24T21:47:28.262Z,14.0
2023-07-24T21:50:43.129Z,14.0
2023-07-24T21:53:54.672Z,14.0
2023-07-24T21:57:06.276Z,14.0
2023-07-24T22:05:54.481Z,14.0
2023-07-24T22:09:07.942Z,14.0
2023-07-24T22:12:19.203Z,14.0
2023-07-24T22:15:31.200Z,14.0
2023-07-24T22:18:44.011Z,14.0
2023-07-24T22:22:03.394Z,14.0
2023-07-24T22:25:15.550Z,14.0
2023-07-24T22:28:27.276Z,14.0
2023-07-24T22:31:39.508Z,14.0
2023-07-24T22:34:52.089Z,14.0
2023-07-24T22:38:03.360Z,14.0
2023-07-24T22:41:15.306Z,14.0
2023-07-24T22:44:27.432Z,14.0
2023-07-24T22:47:40.829Z,14.0
2023-07-24T22:50:52.941Z,14.0
2023-07-24T22:54:04.555Z,14.0
2023-07-24T22:57:16.207Z,14.0
2023-07-24T23:05:52.060Z,14.0
2023-07-24T23:09:03.714Z,14.0
2023-07-24T23:12:16.658Z,14.0
2023-07-24T23:15:27.621Z,14.0
2023-07-24T23:18:40.500Z,14.0
2023-07-24T23:21:51.908Z,14.0
2023-07-24T23:25:03.462Z,14.0
2023-07-24T23:28:15.753Z,14.0
2023-07-24T23:31:27.755Z,14.0
2023-07-24T23:34:40.309Z,14.0
2023-07-24T23:37:51.538Z,14.0
2023-07-24T23:41:02.999Z,14.0
2023-07-24T23:44:15.106Z,14.0
2023-07-24T23:47:27.313Z,14.0
2023-07-24T23:50:38.870Z,14.0
2023-07-24T23:53:53.283Z,14.0
2023-07-24T23:57:05.005Z,14.0
